sensor_id;sensor_type;location;lat;lon;timestamp;temperature;humidity
67750;DHT22;54550;48.838;8.828;2023-04-03T00:01:26;1.90;99.90
67750;DHT22;54550;48.838;8.828;2023-04-03T00:03:51;2.00;99.90
67750;DHT22;54550;48.838;8.828;2023-04-03T00:06:17;1.90;99.90
67750;DHT22;54550;48.838;8.828;2023-04-03T00:08:43;1.80;99.90
67750;DHT22;54550;48.838;8.828;2023-04-03T00:11:09;1.80;99.90
67750;DHT22;54550;48.838;8.828;2023-04-03T00:13:36;1.80;99.90
67750;DHT22;54550;48.838;8.828;2023-04-03T00:16:02;1.80;99.90
67750;DHT22;54550;48.838;8.828;2023-04-03T00:18:30;1.70;99.90
67750;DHT22;54550;48.838;8.828;2023-04-03T00:20:55;1.70;99.90
67750;DHT22;54550;48.838;8.828;2023-04-03T00:23:21;1.60;99.90
67750;DHT22;54550;48.838;8.828;2023-04-03T00:25:49;1.60;99.90
67750;DHT22;54550;48.838;8.828;2023-04-03T00:28:15;1.60;99.90
67750;DHT22;54550;48.838;8.828;2023-04-03T00:30:41;1.60;99.90
67750;DHT22;54550;48.838;8.828;2023-04-03T00:33:07;1.50;99.90
67750;DHT22;54550;48.838;8.828;2023-04-03T00:35:34;1.50;99.90
67750;DHT22;54550;48.838;8.828;2023-04-03T00:38:00;1.50;99.90
67750;DHT22;54550;48.838;8.828;2023-04-03T00:40:26;1.40;99.90
67750;DHT22;54550;48.838;8.828;2023-04-03T00:42:59;1.40;99.90
67750;DHT22;54550;48.838;8.828;2023-04-03T00:45:32;1.40;99.90
67750;DHT22;54550;48.838;8.828;2023-04-03T00:48:00;1.40;99.90
67750;DHT22;54550;48.838;8.828;2023-04-03T00:50:28;1.40;99.90
67750;DHT22;54550;48.838;8.828;2023-04-03T00:52:56;1.40;99.90
67750;DHT22;54550;48.838;8.828;2023-04-03T00:55:22;1.30;99.90
67750;DHT22;54550;48.838;8.828;2023-04-03T00:57:49;1.30;99.90
67750;DHT22;54550;48.838;8.828;2023-04-03T01:00:17;1.30;99.90
67750;DHT22;54550;48.838;8.828;2023-04-03T01:02:44;1.30;99.90
67750;DHT22;54550;48.838;8.828;2023-04-03T01:05:10;1.30;99.90
67750;DHT22;54550;48.838;8.828;2023-04-03T01:07:37;1.20;99.90
67750;DHT22;54550;48.838;8.828;2023-04-03T01:10:07;1.20;99.90
67750;DHT22;54550;48.838;8.828;2023-04-03T01:12:39;1.10;99.90
67750;DHT22;54550;48.838;8.828;2023-04-03T01:15:11;1.10;99.90
67750;DHT22;54550;48.838;8.828;2023-04-03T01:17:54;1.00;99.90
67750;DHT22;54550;48.838;8.828;2023-04-03T01:25:37;0.90;99.90
67750;DHT22;54550;48.838;8.828;2023-04-03T01:28:04;0.90;99.90
67750;DHT22;54550;48.838;8.828;2023-04-03T01:30:56;0.80;99.90
67750;DHT22;54550;48.838;8.828;2023-04-03T01:33:20;0.80;99.90
67750;DHT22;54550;48.838;8.828;2023-04-03T01:35:45;0.70;99.90
67750;DHT22;54550;48.838;8.828;2023-04-03T01:38:11;0.70;99.90
67750;DHT22;54550;48.838;8.828;2023-04-03T01:40:37;0.70;99.90
67750;DHT22;54550;48.838;8.828;2023-04-03T01:43:03;0.70;99.90
67750;DHT22;54550;48.838;8.828;2023-04-03T01:45:28;0.60;99.90
67750;DHT22;54550;48.838;8.828;2023-04-03T01:47:54;0.60;99.90
67750;DHT22;54550;48.838;8.828;2023-04-03T01:50:20;0.60;99.90
67750;DHT22;54550;48.838;8.828;2023-04-03T01:52:45;0.60;99.90
67750;DHT22;54550;48.838;8.828;2023-04-03T01:55:11;0.50;99.90
67750;DHT22;54550;48.838;8.828;2023-04-03T01:57:36;0.50;99.90
67750;DHT22;54550;48.838;8.828;2023-04-03T02:00:03;0.40;99.90
67750;DHT22;54550;48.838;8.828;2023-04-03T02:02:28;0.50;99.90
67750;DHT22;54550;48.838;8.828;2023-04-03T02:04:54;0.50;99.90
67750;DHT22;54550;48.838;8.828;2023-04-03T02:07:20;0.50;99.90
67750;DHT22;54550;48.838;8.828;2023-04-03T02:09:45;0.50;99.90
67750;DHT22;54550;48.838;8.828;2023-04-03T02:12:11;0.40;99.90
67750;DHT22;54550;48.838;8.828;2023-04-03T02:14:36;0.40;99.90
67750;DHT22;54550;48.838;8.828;2023-04-03T02:17:02;0.40;99.90
67750;DHT22;54550;48.838;8.828;2023-04-03T02:19:30;0.50;99.90
67750;DHT22;54550;48.838;8.828;2023-04-03T02:21:56;0.50;99.90
67750;DHT22;54550;48.838;8.828;2023-04-03T02:24:22;0.50;99.90
67750;DHT22;54550;48.838;8.828;2023-04-03T02:26:47;0.60;99.90
67750;DHT22;54550;48.838;8.828;2023-04-03T02:29:13;0.60;99.90
67750;DHT22;54550;48.838;8.828;2023-04-03T02:31:38;0.60;99.90
67750;DHT22;54550;48.838;8.828;2023-04-03T02:34:04;0.70;99.90
67750;DHT22;54550;48.838;8.828;2023-04-03T02:36:30;0.70;99.90
67750;DHT22;54550;48.838;8.828;2023-04-03T02:38:55;0.80;99.90
67750;DHT22;54550;48.838;8.828;2023-04-03T02:41:21;0.80;99.90
67750;DHT22;54550;48.838;8.828;2023-04-03T02:43:46;0.80;99.90
67750;DHT22;54550;48.838;8.828;2023-04-03T02:46:12;0.90;99.90
67750;DHT22;54550;48.838;8.828;2023-04-03T02:48:40;1.00;99.90
67750;DHT22;54550;48.838;8.828;2023-04-03T02:51:05;0.90;99.90
67750;DHT22;54550;48.838;8.828;2023-04-03T02:53:31;0.90;99.90
67750;DHT22;54550;48.838;8.828;2023-04-03T02:55:56;1.00;99.90
67750;DHT22;54550;48.838;8.828;2023-04-03T02:58:22;1.00;99.90
67750;DHT22;54550;48.838;8.828;2023-04-03T03:00:47;1.00;99.90
67750;DHT22;54550;48.838;8.828;2023-04-03T03:03:13;1.00;99.90
67750;DHT22;54550;48.838;8.828;2023-04-03T03:05:40;1.00;99.90
67750;DHT22;54550;48.838;8.828;2023-04-03T03:08:05;1.00;99.90
67750;DHT22;54550;48.838;8.828;2023-04-03T03:10:31;1.00;99.90
67750;DHT22;54550;48.838;8.828;2023-04-03T03:12:56;1.00;99.90
67750;DHT22;54550;48.838;8.828;2023-04-03T03:15:22;1.00;99.90
67750;DHT22;54550;48.838;8.828;2023-04-03T03:17:47;1.00;99.90
67750;DHT22;54550;48.838;8.828;2023-04-03T03:20:13;1.10;99.90
67750;DHT22;54550;48.838;8.828;2023-04-03T03:22:41;1.10;99.90
67750;DHT22;54550;48.838;8.828;2023-04-03T03:25:07;1.10;99.90
67750;DHT22;54550;48.838;8.828;2023-04-03T03:27:33;1.10;99.90
67750;DHT22;54550;48.838;8.828;2023-04-03T03:29:58;1.10;99.90
67750;DHT22;54550;48.838;8.828;2023-04-03T03:32:24;1.10;99.90
67750;DHT22;54550;48.838;8.828;2023-04-03T03:34:50;1.10;99.90
67750;DHT22;54550;48.838;8.828;2023-04-03T03:37:15;1.10;99.90
67750;DHT22;54550;48.838;8.828;2023-04-03T03:39:41;1.10;99.90
67750;DHT22;54550;48.838;8.828;2023-04-03T03:42:07;1.10;99.90
67750;DHT22;54550;48.838;8.828;2023-04-03T03:44:32;1.10;99.90
67750;DHT22;54550;48.838;8.828;2023-04-03T03:46:58;1.20;99.90
67750;DHT22;54550;48.838;8.828;2023-04-03T03:49:23;1.20;99.90
67750;DHT22;54550;48.838;8.828;2023-04-03T03:51:49;1.20;99.90
67750;DHT22;54550;48.838;8.828;2023-04-03T03:54:16;1.20;99.90
67750;DHT22;54550;48.838;8.828;2023-04-03T03:56:41;1.20;99.90
67750;DHT22;54550;48.838;8.828;2023-04-03T03:59:07;1.20;99.90
67750;DHT22;54550;48.838;8.828;2023-04-03T04:01:33;1.20;99.90
67750;DHT22;54550;48.838;8.828;2023-04-03T04:03:58;1.20;99.90
67750;DHT22;54550;48.838;8.828;2023-04-03T04:06:24;1.20;99.90
67750;DHT22;54550;48.838;8.828;2023-04-03T04:08:50;1.20;99.90
67750;DHT22;54550;48.838;8.828;2023-04-03T04:11:15;1.20;99.90
67750;DHT22;54550;48.838;8.828;2023-04-03T04:13:41;1.20;99.90
67750;DHT22;54550;48.838;8.828;2023-04-03T04:16:07;1.20;99.90
67750;DHT22;54550;48.838;8.828;2023-04-03T04:18:33;1.20;99.90
67750;DHT22;54550;48.838;8.828;2023-04-03T04:20:59;1.20;99.90
67750;DHT22;54550;48.838;8.828;2023-04-03T04:23:25;1.20;99.90
67750;DHT22;54550;48.838;8.828;2023-04-03T04:25:50;1.20;99.90
67750;DHT22;54550;48.838;8.828;2023-04-03T04:28:16;1.20;99.90
67750;DHT22;54550;48.838;8.828;2023-04-03T04:30:42;1.20;99.90
67750;DHT22;54550;48.838;8.828;2023-04-03T04:33:08;1.20;99.90
67750;DHT22;54550;48.838;8.828;2023-04-03T04:35:33;1.20;99.90
67750;DHT22;54550;48.838;8.828;2023-04-03T04:37:59;1.20;99.90
67750;DHT22;54550;48.838;8.828;2023-04-03T04:40:25;1.30;99.90
67750;DHT22;54550;48.838;8.828;2023-04-03T04:42:51;1.30;99.90
67750;DHT22;54550;48.838;8.828;2023-04-03T04:45:17;1.30;99.90
67750;DHT22;54550;48.838;8.828;2023-04-03T04:47:42;1.30;99.90
67750;DHT22;54550;48.838;8.828;2023-04-03T04:50:09;1.30;99.90
67750;DHT22;54550;48.838;8.828;2023-04-03T04:52:35;1.30;99.90
67750;DHT22;54550;48.838;8.828;2023-04-03T04:55:00;1.30;99.90
67750;DHT22;54550;48.838;8.828;2023-04-03T04:57:26;1.40;99.90
67750;DHT22;54550;48.838;8.828;2023-04-03T04:59:51;1.40;99.90
67750;DHT22;54550;48.838;8.828;2023-04-03T05:02:17;1.40;99.90
67750;DHT22;54550;48.838;8.828;2023-04-03T05:04:42;1.40;99.90
67750;DHT22;54550;48.838;8.828;2023-04-03T05:07:08;1.40;99.90
67750;DHT22;54550;48.838;8.828;2023-04-03T05:09:33;1.40;99.90
67750;DHT22;54550;48.838;8.828;2023-04-03T05:11:59;1.40;99.90
67750;DHT22;54550;48.838;8.828;2023-04-03T05:14:25;1.50;99.90
67750;DHT22;54550;48.838;8.828;2023-04-03T05:16:51;1.50;99.90
67750;DHT22;54550;48.838;8.828;2023-04-03T05:19:20;1.50;99.90
67750;DHT22;54550;48.838;8.828;2023-04-03T05:21:46;1.50;99.90
67750;DHT22;54550;48.838;8.828;2023-04-03T05:24:12;1.60;99.90
67750;DHT22;54550;48.838;8.828;2023-04-03T05:26:37;1.60;99.90
67750;DHT22;54550;48.838;8.828;2023-04-03T05:29:04;1.70;99.90
67750;DHT22;54550;48.838;8.828;2023-04-03T05:31:29;1.70;99.90
67750;DHT22;54550;48.838;8.828;2023-04-03T05:33:55;1.80;99.90
67750;DHT22;54550;48.838;8.828;2023-04-03T05:36:21;1.80;99.90
67750;DHT22;54550;48.838;8.828;2023-04-03T05:38:47;1.80;99.90
67750;DHT22;54550;48.838;8.828;2023-04-03T05:41:14;1.70;99.90
67750;DHT22;54550;48.838;8.828;2023-04-03T05:43:40;1.60;99.90
67750;DHT22;54550;48.838;8.828;2023-04-03T05:46:13;1.50;99.90
67750;DHT22;54550;48.838;8.828;2023-04-03T05:48:40;1.50;99.90
67750;DHT22;54550;48.838;8.828;2023-04-03T05:51:07;1.40;99.90
67750;DHT22;54550;48.838;8.828;2023-04-03T05:53:35;1.40;99.90
67750;DHT22;54550;48.838;8.828;2023-04-03T05:56:02;1.40;99.90
67750;DHT22;54550;48.838;8.828;2023-04-03T05:58:28;1.40;99.90
67750;DHT22;54550;48.838;8.828;2023-04-03T06:00:54;1.40;99.90
67750;DHT22;54550;48.838;8.828;2023-04-03T06:03:20;1.50;99.90
67750;DHT22;54550;48.838;8.828;2023-04-03T06:05:45;1.50;99.90
67750;DHT22;54550;48.838;8.828;2023-04-03T06:08:11;1.60;99.90
67750;DHT22;54550;48.838;8.828;2023-04-03T06:10:38;1.60;99.90
67750;DHT22;54550;48.838;8.828;2023-04-03T06:13:03;1.70;99.90
67750;DHT22;54550;48.838;8.828;2023-04-03T06:15:29;1.70;99.90
67750;DHT22;54550;48.838;8.828;2023-04-03T06:17:54;1.70;99.90
67750;DHT22;54550;48.838;8.828;2023-04-03T06:20:20;1.80;99.90
67750;DHT22;54550;48.838;8.828;2023-04-03T06:22:47;1.80;99.90
67750;DHT22;54550;48.838;8.828;2023-04-03T06:25:13;1.80;99.90
67750;DHT22;54550;48.838;8.828;2023-04-03T06:27:39;1.90;99.90
67750;DHT22;54550;48.838;8.828;2023-04-03T06:30:06;2.00;99.90
67750;DHT22;54550;48.838;8.828;2023-04-03T06:32:32;2.00;99.90
67750;DHT22;54550;48.838;8.828;2023-04-03T06:34:58;2.00;99.90
67750;DHT22;54550;48.838;8.828;2023-04-03T06:37:24;2.00;99.90
67750;DHT22;54550;48.838;8.828;2023-04-03T06:39:54;2.00;99.90
67750;DHT22;54550;48.838;8.828;2023-04-03T06:42:20;2.00;99.90
67750;DHT22;54550;48.838;8.828;2023-04-03T06:44:46;2.00;99.90
67750;DHT22;54550;48.838;8.828;2023-04-03T06:47:14;2.00;99.90
67750;DHT22;54550;48.838;8.828;2023-04-03T06:49:40;2.00;99.90
67750;DHT22;54550;48.838;8.828;2023-04-03T06:52:06;2.10;99.90
67750;DHT22;54550;48.838;8.828;2023-04-03T06:54:32;2.10;99.90
67750;DHT22;54550;48.838;8.828;2023-04-03T06:56:58;2.10;99.90
67750;DHT22;54550;48.838;8.828;2023-04-03T06:59:24;2.00;99.90
67750;DHT22;54550;48.838;8.828;2023-04-03T07:01:49;2.10;99.90
67750;DHT22;54550;48.838;8.828;2023-04-03T07:04:15;2.10;99.90
67750;DHT22;54550;48.838;8.828;2023-04-03T07:06:41;2.10;99.90
67750;DHT22;54550;48.838;8.828;2023-04-03T07:09:08;2.10;99.90
67750;DHT22;54550;48.838;8.828;2023-04-03T07:11:34;2.10;99.90
67750;DHT22;54550;48.838;8.828;2023-04-03T07:14:02;2.30;99.90
67750;DHT22;54550;48.838;8.828;2023-04-03T07:16:27;2.30;99.90
67750;DHT22;54550;48.838;8.828;2023-04-03T07:18:53;2.40;99.90
67750;DHT22;54550;48.838;8.828;2023-04-03T07:21:18;2.40;99.90
67750;DHT22;54550;48.838;8.828;2023-04-03T07:23:44;2.50;99.90
67750;DHT22;54550;48.838;8.828;2023-04-03T07:26:10;2.60;99.90
67750;DHT22;54550;48.838;8.828;2023-04-03T07:28:35;2.60;99.90
67750;DHT22;54550;48.838;8.828;2023-04-03T07:31:05;2.60;99.90
67750;DHT22;54550;48.838;8.828;2023-04-03T07:33:34;2.70;99.90
67750;DHT22;54550;48.838;8.828;2023-04-03T07:36:00;2.90;99.90
67750;DHT22;54550;48.838;8.828;2023-04-03T07:38:27;3.10;99.90
67750;DHT22;54550;48.838;8.828;2023-04-03T07:40:53;3.30;99.90
67750;DHT22;54550;48.838;8.828;2023-04-03T07:43:20;3.40;99.90
67750;DHT22;54550;48.838;8.828;2023-04-03T07:45:47;3.40;99.90
67750;DHT22;54550;48.838;8.828;2023-04-03T07:48:15;3.30;99.90
67750;DHT22;54550;48.838;8.828;2023-04-03T07:50:41;3.30;99.90
67750;DHT22;54550;48.838;8.828;2023-04-03T07:53:07;3.30;99.90
67750;DHT22;54550;48.838;8.828;2023-04-03T07:55:33;3.50;99.90
67750;DHT22;54550;48.838;8.828;2023-04-03T07:57:59;3.40;99.90
67750;DHT22;54550;48.838;8.828;2023-04-03T08:00:24;3.30;99.90
67750;DHT22;54550;48.838;8.828;2023-04-03T08:02:50;3.50;99.90
67750;DHT22;54550;48.838;8.828;2023-04-03T08:05:20;3.70;99.90
67750;DHT22;54550;48.838;8.828;2023-04-03T08:07:47;3.70;99.90
67750;DHT22;54550;48.838;8.828;2023-04-03T08:10:13;3.60;99.90
67750;DHT22;54550;48.838;8.828;2023-04-03T08:12:39;3.60;99.90
67750;DHT22;54550;48.838;8.828;2023-04-03T08:15:06;3.60;99.90
67750;DHT22;54550;48.838;8.828;2023-04-03T08:17:32;4.00;99.90
67750;DHT22;54550;48.838;8.828;2023-04-03T08:19:58;4.10;99.90
67750;DHT22;54550;48.838;8.828;2023-04-03T08:22:23;4.00;99.90
67750;DHT22;54550;48.838;8.828;2023-04-03T08:24:49;4.00;99.90
67750;DHT22;54550;48.838;8.828;2023-04-03T08:27:15;3.90;99.90
67750;DHT22;54550;48.838;8.828;2023-04-03T08:29:41;3.90;99.90
67750;DHT22;54550;48.838;8.828;2023-04-03T08:32:07;4.10;99.90
67750;DHT22;54550;48.838;8.828;2023-04-03T08:34:32;4.50;99.90
67750;DHT22;54550;48.838;8.828;2023-04-03T08:37:02;4.90;99.90
67750;DHT22;54550;48.838;8.828;2023-04-03T08:39:28;4.70;99.90
67750;DHT22;54550;48.838;8.828;2023-04-03T08:41:57;4.50;99.90
67750;DHT22;54550;48.838;8.828;2023-04-03T08:47:23;4.50;99.90
67750;DHT22;54550;48.838;8.828;2023-04-03T08:50:04;4.60;99.90
67750;DHT22;54550;48.838;8.828;2023-04-03T09:03:15;4.30;99.90
67750;DHT22;54550;48.838;8.828;2023-04-03T09:08:24;4.40;99.90
67750;DHT22;54550;48.838;8.828;2023-04-03T09:14:16;4.50;99.90
67750;DHT22;54550;48.838;8.828;2023-04-03T09:16:54;4.60;99.90
67750;DHT22;54550;48.838;8.828;2023-04-03T09:19:22;4.50;99.90
67750;DHT22;54550;48.838;8.828;2023-04-03T09:21:50;4.60;99.90
67750;DHT22;54550;48.838;8.828;2023-04-03T09:24:16;4.90;99.90
67750;DHT22;54550;48.838;8.828;2023-04-03T09:26:51;4.90;99.90
67750;DHT22;54550;48.838;8.828;2023-04-03T09:29:20;5.00;99.90
67750;DHT22;54550;48.838;8.828;2023-04-03T09:31:49;5.00;99.90
67750;DHT22;54550;48.838;8.828;2023-04-03T09:34:25;4.70;99.90
67750;DHT22;54550;48.838;8.828;2023-04-03T09:36:54;4.70;99.90
67750;DHT22;54550;48.838;8.828;2023-04-03T09:39:28;4.60;99.90
67750;DHT22;54550;48.838;8.828;2023-04-03T09:42:17;4.50;99.90
67750;DHT22;54550;48.838;8.828;2023-04-03T09:44:56;4.50;99.90
67750;DHT22;54550;48.838;8.828;2023-04-03T09:47:36;4.60;99.90
67750;DHT22;54550;48.838;8.828;2023-04-03T09:50:18;4.80;99.90
67750;DHT22;54550;48.838;8.828;2023-04-03T09:52:47;4.70;99.90
67750;DHT22;54550;48.838;8.828;2023-04-03T09:55:16;4.70;99.90
67750;DHT22;54550;48.838;8.828;2023-04-03T09:57:43;4.70;99.90
67750;DHT22;54550;48.838;8.828;2023-04-03T10:00:37;4.70;99.90
67750;DHT22;54550;48.838;8.828;2023-04-03T10:03:04;4.70;99.90
67750;DHT22;54550;48.838;8.828;2023-04-03T10:10:37;4.40;99.90
67750;DHT22;54550;48.838;8.828;2023-04-03T10:13:14;4.40;99.90
67750;DHT22;54550;48.838;8.828;2023-04-03T10:16:12;4.60;99.90
67750;DHT22;54550;48.838;8.828;2023-04-03T10:18:44;5.00;99.90
67750;DHT22;54550;48.838;8.828;2023-04-03T10:21:15;6.60;99.90
67750;DHT22;54550;48.838;8.828;2023-04-03T10:23:50;6.60;99.90
67750;DHT22;54550;48.838;8.828;2023-04-03T10:31:41;5.00;99.90
67750;DHT22;54550;48.838;8.828;2023-04-03T10:34:27;4.90;99.90
67750;DHT22;54550;48.838;8.828;2023-04-03T10:42:34;4.70;99.90
67750;DHT22;54550;48.838;8.828;2023-04-03T10:45:21;4.70;99.90
67750;DHT22;54550;48.838;8.828;2023-04-03T10:48:10;4.60;99.90
67750;DHT22;54550;48.838;8.828;2023-04-03T10:56:47;4.90;99.90
67750;DHT22;54550;48.838;8.828;2023-04-03T11:01:54;4.70;99.90
67750;DHT22;54550;48.838;8.828;2023-04-03T11:04:22;4.80;99.90
67750;DHT22;54550;48.838;8.828;2023-04-03T11:06:57;4.60;99.90
67750;DHT22;54550;48.838;8.828;2023-04-03T11:09:36;4.70;99.90
67750;DHT22;54550;48.838;8.828;2023-04-03T11:12:48;4.60;99.90
67750;DHT22;54550;48.838;8.828;2023-04-03T11:15:19;4.80;99.90
67750;DHT22;54550;48.838;8.828;2023-04-03T11:17:55;4.70;99.90
67750;DHT22;54550;48.838;8.828;2023-04-03T11:20:29;4.70;99.90
67750;DHT22;54550;48.838;8.828;2023-04-03T11:25:36;5.30;99.90
67750;DHT22;54550;48.838;8.828;2023-04-03T11:28:05;5.10;99.90
67750;DHT22;54550;48.838;8.828;2023-04-03T11:36:26;5.10;99.90
67750;DHT22;54550;48.838;8.828;2023-04-03T11:39:16;5.00;99.90
67750;DHT22;54550;48.838;8.828;2023-04-03T11:41:43;5.00;99.90
67750;DHT22;54550;48.838;8.828;2023-04-03T11:46:58;5.00;99.90
67750;DHT22;54550;48.838;8.828;2023-04-03T11:49:59;5.20;99.90
67750;DHT22;54550;48.838;8.828;2023-04-03T12:05:48;5.40;99.90
67750;DHT22;54550;48.838;8.828;2023-04-03T12:13:37;5.70;99.90
67750;DHT22;54550;48.838;8.828;2023-04-03T12:16:05;5.30;99.90
67750;DHT22;54550;48.838;8.828;2023-04-03T12:26:47;5.70;99.90
67750;DHT22;54550;48.838;8.828;2023-04-03T12:29:25;5.60;99.90
67750;DHT22;54550;48.838;8.828;2023-04-03T12:40:09;5.40;99.90
67750;DHT22;54550;48.838;8.828;2023-04-03T12:45:24;5.00;99.90
67750;DHT22;54550;48.838;8.828;2023-04-03T12:47:53;5.00;99.90
67750;DHT22;54550;48.838;8.828;2023-04-03T12:50:23;5.20;99.90
67750;DHT22;54550;48.838;8.828;2023-04-03T12:53:05;5.30;99.90
67750;DHT22;54550;48.838;8.828;2023-04-03T12:55:31;5.30;99.90
67750;DHT22;54550;48.838;8.828;2023-04-03T12:58:30;5.60;99.90
67750;DHT22;54550;48.838;8.828;2023-04-03T13:01:09;5.70;99.90
67750;DHT22;54550;48.838;8.828;2023-04-03T13:03:42;5.70;99.90
67750;DHT22;54550;48.838;8.828;2023-04-03T13:06:17;5.60;99.90
67750;DHT22;54550;48.838;8.828;2023-04-03T13:08:58;5.70;99.90
67750;DHT22;54550;48.838;8.828;2023-04-03T13:11:27;5.70;99.90
67750;DHT22;54550;48.838;8.828;2023-04-03T13:13:58;5.60;99.90
67750;DHT22;54550;48.838;8.828;2023-04-03T13:16:23;5.40;99.90
67750;DHT22;54550;48.838;8.828;2023-04-03T13:18:52;5.30;99.90
67750;DHT22;54550;48.838;8.828;2023-04-03T13:21:29;5.30;99.90
67750;DHT22;54550;48.838;8.828;2023-04-03T13:23:58;5.20;99.90
67750;DHT22;54550;48.838;8.828;2023-04-03T13:26:29;5.10;99.90
67750;DHT22;54550;48.838;8.828;2023-04-03T13:29:00;5.00;99.90
67750;DHT22;54550;48.838;8.828;2023-04-03T13:31:30;5.10;99.90
67750;DHT22;54550;48.838;8.828;2023-04-03T13:34:04;5.20;99.90
67750;DHT22;54550;48.838;8.828;2023-04-03T13:36:36;5.30;99.90
67750;DHT22;54550;48.838;8.828;2023-04-03T13:41:42;6.00;99.90
67750;DHT22;54550;48.838;8.828;2023-04-03T13:46:56;6.00;99.90
67750;DHT22;54550;48.838;8.828;2023-04-03T13:49:40;5.90;99.90
67750;DHT22;54550;48.838;8.828;2023-04-03T13:52:25;5.70;99.90
67750;DHT22;54550;48.838;8.828;2023-04-03T13:54:55;5.80;99.90
67750;DHT22;54550;48.838;8.828;2023-04-03T13:57:21;5.90;99.90
67750;DHT22;54550;48.838;8.828;2023-04-03T13:59:47;6.00;99.90
67750;DHT22;54550;48.838;8.828;2023-04-03T14:02:28;5.70;99.90
67750;DHT22;54550;48.838;8.828;2023-04-03T14:04:57;5.70;99.90
67750;DHT22;54550;48.838;8.828;2023-04-03T14:07:26;5.50;99.90
67750;DHT22;54550;48.838;8.828;2023-04-03T14:09:52;5.60;99.90
67750;DHT22;54550;48.838;8.828;2023-04-03T14:14:43;5.30;99.90
67750;DHT22;54550;48.838;8.828;2023-04-03T14:17:22;5.40;99.90
67750;DHT22;54550;48.838;8.828;2023-04-03T14:19:49;5.40;99.90
67750;DHT22;54550;48.838;8.828;2023-04-03T14:22:19;5.30;99.90
67750;DHT22;54550;48.838;8.828;2023-04-03T14:24:45;5.30;99.90
67750;DHT22;54550;48.838;8.828;2023-04-03T14:27:18;5.20;99.90
67750;DHT22;54550;48.838;8.828;2023-04-03T14:29:44;5.30;99.90
67750;DHT22;54550;48.838;8.828;2023-04-03T14:32:12;5.30;99.90
67750;DHT22;54550;48.838;8.828;2023-04-03T14:34:38;5.30;99.90
67750;DHT22;54550;48.838;8.828;2023-04-03T14:37:08;5.30;99.90
67750;DHT22;54550;48.838;8.828;2023-04-03T14:39:34;5.30;99.90
67750;DHT22;54550;48.838;8.828;2023-04-03T14:42:00;5.30;99.90
67750;DHT22;54550;48.838;8.828;2023-04-03T14:44:25;5.20;99.90
67750;DHT22;54550;48.838;8.828;2023-04-03T14:46:51;5.10;99.90
67750;DHT22;54550;48.838;8.828;2023-04-03T14:49:24;5.20;99.90
67750;DHT22;54550;48.838;8.828;2023-04-03T14:51:50;5.40;99.90
67750;DHT22;54550;48.838;8.828;2023-04-03T14:54:18;5.40;99.90
67750;DHT22;54550;48.838;8.828;2023-04-03T14:56:44;5.40;99.90
67750;DHT22;54550;48.838;8.828;2023-04-03T14:59:12;5.30;99.90
67750;DHT22;54550;48.838;8.828;2023-04-03T15:01:38;5.20;99.90
67750;DHT22;54550;48.838;8.828;2023-04-03T15:04:16;5.30;99.90
67750;DHT22;54550;48.838;8.828;2023-04-03T15:06:41;5.40;99.90
67750;DHT22;54550;48.838;8.828;2023-04-03T15:09:22;5.60;99.90
67750;DHT22;54550;48.838;8.828;2023-04-03T15:11:49;5.60;99.90
67750;DHT22;54550;48.838;8.828;2023-04-03T15:14:15;5.70;99.90
67750;DHT22;54550;48.838;8.828;2023-04-03T15:16:41;5.70;99.90
67750;DHT22;54550;48.838;8.828;2023-04-03T15:19:07;5.70;99.90
67750;DHT22;54550;48.838;8.828;2023-04-03T15:21:32;5.40;99.90
67750;DHT22;54550;48.838;8.828;2023-04-03T15:23:58;5.40;99.90
67750;DHT22;54550;48.838;8.828;2023-04-03T15:26:24;5.30;99.90
67750;DHT22;54550;48.838;8.828;2023-04-03T15:28:52;5.20;99.90
67750;DHT22;54550;48.838;8.828;2023-04-03T15:31:18;5.20;99.90
67750;DHT22;54550;48.838;8.828;2023-04-03T15:33:44;5.30;99.90
67750;DHT22;54550;48.838;8.828;2023-04-03T15:36:10;5.40;99.90
67750;DHT22;54550;48.838;8.828;2023-04-03T15:38:35;5.50;99.90
67750;DHT22;54550;48.838;8.828;2023-04-03T15:41:03;5.80;99.90
67750;DHT22;54550;48.838;8.828;2023-04-03T15:43:29;5.70;99.90
67750;DHT22;54550;48.838;8.828;2023-04-03T15:45:58;5.70;99.90
67750;DHT22;54550;48.838;8.828;2023-04-03T15:48:25;5.60;99.90
67750;DHT22;54550;48.838;8.828;2023-04-03T15:50:51;5.40;99.90
67750;DHT22;54550;48.838;8.828;2023-04-03T15:53:17;5.30;99.90
67750;DHT22;54550;48.838;8.828;2023-04-03T15:55:42;5.10;99.90
67750;DHT22;54550;48.838;8.828;2023-04-03T15:58:08;5.20;99.90
67750;DHT22;54550;48.838;8.828;2023-04-03T16:00:35;5.20;99.90
67750;DHT22;54550;48.838;8.828;2023-04-03T16:03:07;5.20;99.90
67750;DHT22;54550;48.838;8.828;2023-04-03T16:05:35;5.20;99.90
67750;DHT22;54550;48.838;8.828;2023-04-03T16:08:02;5.20;99.90
67750;DHT22;54550;48.838;8.828;2023-04-03T16:10:28;5.30;99.90
67750;DHT22;54550;48.838;8.828;2023-04-03T16:12:53;5.30;99.90
67750;DHT22;54550;48.838;8.828;2023-04-03T16:15:19;5.30;99.90
67750;DHT22;54550;48.838;8.828;2023-04-03T16:17:45;5.20;99.90
67750;DHT22;54550;48.838;8.828;2023-04-03T16:20:11;5.20;99.90
67750;DHT22;54550;48.838;8.828;2023-04-03T16:22:38;5.10;99.90
67750;DHT22;54550;48.838;8.828;2023-04-03T16:25:06;5.00;99.90
67750;DHT22;54550;48.838;8.828;2023-04-03T16:27:31;5.00;99.90
67750;DHT22;54550;48.838;8.828;2023-04-03T16:29:58;4.90;99.90
67750;DHT22;54550;48.838;8.828;2023-04-03T16:32:26;4.80;99.90
67750;DHT22;54550;48.838;8.828;2023-04-03T16:34:53;4.70;99.90
67750;DHT22;54550;48.838;8.828;2023-04-03T16:37:18;4.60;99.90
67750;DHT22;54550;48.838;8.828;2023-04-03T16:39:44;4.50;99.90
67750;DHT22;54550;48.838;8.828;2023-04-03T16:42:10;4.60;99.90
67750;DHT22;54550;48.838;8.828;2023-04-03T16:44:36;4.70;99.90
67750;DHT22;54550;48.838;8.828;2023-04-03T16:47:02;4.70;99.90
67750;DHT22;54550;48.838;8.828;2023-04-03T16:49:28;4.70;99.90
67750;DHT22;54550;48.838;8.828;2023-04-03T16:52:03;4.70;99.90
67750;DHT22;54550;48.838;8.828;2023-04-03T16:54:30;4.70;99.90
67750;DHT22;54550;48.838;8.828;2023-04-03T16:56:55;4.60;99.90
67750;DHT22;54550;48.838;8.828;2023-04-03T16:59:21;4.60;99.90
67750;DHT22;54550;48.838;8.828;2023-04-03T17:01:47;4.70;99.90
67750;DHT22;54550;48.838;8.828;2023-04-03T17:04:13;4.70;99.90
67750;DHT22;54550;48.838;8.828;2023-04-03T17:06:39;4.70;99.90
67750;DHT22;54550;48.838;8.828;2023-04-03T17:09:05;4.70;99.90
67750;DHT22;54550;48.838;8.828;2023-04-03T17:11:31;4.60;99.90
67750;DHT22;54550;48.838;8.828;2023-04-03T17:13:57;4.60;99.90
67750;DHT22;54550;48.838;8.828;2023-04-03T17:16:24;4.50;99.90
67750;DHT22;54550;48.838;8.828;2023-04-03T17:18:51;4.40;99.90
67750;DHT22;54550;48.838;8.828;2023-04-03T17:21:17;4.40;99.90
67750;DHT22;54550;48.838;8.828;2023-04-03T17:23:46;4.40;99.90
67750;DHT22;54550;48.838;8.828;2023-04-03T17:26:12;4.40;99.90
67750;DHT22;54550;48.838;8.828;2023-04-03T17:28:38;4.40;99.90
67750;DHT22;54550;48.838;8.828;2023-04-03T17:31:06;4.30;99.90
67750;DHT22;54550;48.838;8.828;2023-04-03T17:33:32;4.30;99.90
67750;DHT22;54550;48.838;8.828;2023-04-03T17:35:59;4.20;99.90
67750;DHT22;54550;48.838;8.828;2023-04-03T17:38:27;4.20;99.90